Time;durP1;ratioP1;P1;durP2;ratioP2;P2;SDS_P1;SDS_P2;PMS_P1;PMS_P2;Temp;Humidity;BMP_temperature;BMP_pressure;BME280_temperature;BME280_humidity;BME280_pressure;Samples;Min_cycle;Max_cycle;Signal;HPM_P1;HPM_P2
2022/06/20 00:01:08;;;;;;;3.40;2.10;;;;;;;31.59;41.23;98732.41;5041645;28;20025;-88
2022/06/20 00:03:43;;;;;;;3.72;2.25;;;;;;;31.60;40.83;98734.09;5037345;28;20413;-89
2022/06/20 00:06:14;;;;;;;3.67;2.05;;;;;;;31.60;40.90;98734.09;5037260;28;20033;-87
2022/06/20 00:08:41;;;;;;;3.08;1.60;;;;;;;31.61;41.06;98735.75;5037268;28;20048;-88
2022/06/20 00:11:11;;;;;;;4.18;1.95;;;;;;;31.59;40.90;98736.94;5054088;28;20040;-88
2022/06/20 00:13:46;;;;;;;4.13;2.00;;;;;;;31.56;40.91;98738.16;5055027;28;20032;-89
2022/06/20 00:16:15;;;;;;;3.78;1.98;;;;;;;31.56;41.15;98743.53;5036833;28;20021;-87
2022/06/20 00:18:41;;;;;;;4.38;2.00;;;;;;;31.55;40.90;98739.19;5037022;28;20035;-88
2022/06/20 00:21:11;;;;;;;5.00;2.22;;;;;;;31.54;41.14;98742.91;5037230;28;20021;-88
2022/06/20 00:23:37;;;;;;;3.05;1.70;;;;;;;31.55;40.93;98733.78;5037447;28;20031;-88
2022/06/20 00:26:02;;;;;;;4.57;2.20;;;;;;;31.55;40.97;98741.88;5055232;28;20104;-88
2022/06/20 00:28:28;;;;;;;3.90;1.98;;;;;;;31.54;40.99;98745.59;5037261;28;20029;-89
2022/06/20 00:30:54;;;;;;;3.38;1.80;;;;;;;31.51;40.89;98735.16;5041245;28;20451;-88
2022/06/20 00:33:19;;;;;;;4.22;2.33;;;;;;;31.52;41.23;98746.78;5040986;28;20597;-87
2022/06/20 00:35:45;;;;;;;3.28;1.50;;;;;;;31.48;41.07;98740.94;5040980;28;20021;-88
2022/06/20 00:38:18;;;;;;;2.50;1.73;;;;;;;31.48;40.89;98751.72;5058999;28;20031;-88
2022/06/20 00:40:48;;;;;;;3.75;1.73;;;;;;;31.48;40.79;98751.72;5041147;28;20033;-86
2022/06/20 00:43:19;;;;;;;3.80;2.08;;;;;;;31.49;40.92;98753.38;5059030;28;20025;-88
2022/06/20 00:45:49;;;;;;;4.28;1.80;;;;;;;31.48;41.05;98757.09;5040583;28;20039;-87
2022/06/20 00:48:24;;;;;;;3.28;1.65;;;;;;;31.45;41.06;98762.84;5040828;28;20028;-87
2022/06/20 00:50:57;;;;;;;4.00;1.77;;;;;;;31.44;40.85;98755.78;5040529;28;20501;-88
2022/06/20 00:53:30;;;;;;;3.30;1.75;;;;;;;31.45;40.86;98757.44;5060562;28;20068;-88
2022/06/20 00:55:57;;;;;;;3.75;1.83;;;;;;;31.43;40.81;98759.50;5040628;28;20044;-88
2022/06/20 00:58:23;;;;;;;3.08;1.60;;;;;;;31.42;40.87;98757.81;5058170;28;20021;-87
2022/06/20 01:00:48;;;;;;;2.85;1.58;;;;;;;31.40;40.87;98760.69;5057944;28;20111;-88
2022/06/20 01:03:22;;;;;;;2.75;1.73;;;;;;;31.40;41.04;98755.31;5040497;28;20040;-88
2022/06/20 01:05:52;;;;;;;2.35;1.48;;;;;;;31.39;40.98;98756.31;5040251;28;20063;-88
2022/06/20 01:08:20;;;;;;;3.42;1.40;;;;;;;31.39;40.91;98767.09;5040485;28;20021;-88
2022/06/20 01:10:52;;;;;;;2.90;1.63;;;;;;;31.38;41.06;98773.53;5040978;28;20025;-88
2022/06/20 01:13:21;;;;;;;3.10;1.42;;;;;;;31.37;41.13;98768.28;5057849;28;20025;-88
2022/06/20 01:15:51;;;;;;;3.63;1.83;;;;;;;31.36;41.08;98753.16;5040174;28;20029;-87
2022/06/20 01:18:18;;;;;;;2.80;1.60;;;;;;;31.33;40.88;98760.56;5040221;28;20036;-88
2022/06/20 01:20:46;;;;;;;3.28;1.63;;;;;;;31.34;41.00;98764.91;5057748;28;20021;-87
2022/06/20 01:23:19;;;;;;;3.67;1.90;;;;;;;31.34;41.05;98766.78;5057610;28;20024;-88
2022/06/20 01:26:07;;;;;;;3.08;1.30;;;;;;;31.30;41.25;98763.63;5039964;28;20029;-90
2022/06/20 01:28:37;;;;;;;2.13;1.33;;;;;;;31.28;41.08;98762.94;5040134;28;20028;-88
2022/06/20 01:31:04;;;;;;;2.63;1.60;;;;;;;31.29;41.25;98770.03;5040411;28;20035;-88
2022/06/20 01:33:31;;;;;;;2.53;1.60;;;;;;;31.28;41.18;98757.56;5040152;28;20029;-89
2022/06/20 01:38:44;;;;;;;3.17;1.65;;;;;;;31.28;40.96;98762.13;5058599;28;20035;-86
2022/06/20 01:43:58;;;;;;;3.60;1.63;;;;;;;31.27;41.23;98771.19;5057365;28;20093;-86
2022/06/20 01:46:30;;;;;;;2.85;1.42;;;;;;;31.25;41.14;98774.06;5042622;28;20268;-88
2022/06/20 01:48:59;;;;;;;3.40;1.50;;;;;;;31.24;40.87;98772.41;5039579;28;20025;-89
2022/06/20 01:51:33;;;;;;;3.03;1.70;;;;;;;31.23;41.05;98769.88;5039842;28;20374;-86
2022/06/20 01:53:59;;;;;;;2.75;1.40;;;;;;;31.21;40.95;98773.59;5039282;28;20049;-87
2022/06/20 01:56:27;;;;;;;3.22;1.55;;;;;;;31.22;41.23;98774.41;5040258;28;20025;-86
2022/06/20 01:59:07;;;;;;;2.65;1.60;;;;;;;31.21;41.35;98770.91;5041845;28;20420;-88
2022/06/20 02:01:37;;;;;;;2.83;1.58;;;;;;;31.20;40.89;98771.91;5059374;28;20025;-87
2022/06/20 02:04:05;;;;;;;1.90;1.20;;;;;;;31.16;41.14;98769.72;5043685;28;20021;-86
2022/06/20 02:06:32;;;;;;;3.88;1.67;;;;;;;31.16;41.09;98759.81;5057508;28;20025;-87
2022/06/20 02:08:58;;;;;;;3.10;1.38;;;;;;;31.16;41.24;98769.72;5057440;28;20462;-88
2022/06/20 02:11:26;;;;;;;2.28;1.20;;;;;;;31.16;40.92;98767.03;5056890;28;20060;-88
2022/06/20 02:13:58;;;;;;;2.17;1.20;;;;;;;31.15;41.31;98768.06;5056956;28;20033;-86
2022/06/20 02:16:26;;;;;;;2.40;1.42;;;;;;;31.13;41.33;98764.72;5056939;28;20028;-87
2022/06/20 02:18:55;;;;;;;2.63;1.30;;;;;;;31.11;41.05;98761.34;5039010;28;20028;-86
2022/06/20 02:21:24;;;;;;;3.03;1.63;;;;;;;31.12;41.08;98752.28;5039215;28;20025;-86
2022/06/20 02:23:55;;;;;;;3.28;1.67;;;;;;;31.09;41.45;98753.47;5039172;28;20107;-88
2022/06/20 02:26:24;;;;;;;3.28;1.65;;;;;;;31.08;41.28;98758.00;5038906;28;20027;-86
2022/06/20 02:29:24;;;;;;;3.25;1.33;;;;;;;31.08;41.08;98758.00;5039176;28;20036;-88
2022/06/20 02:31:57;;;;;;;3.25;1.50;;;;;;;31.07;41.29;98756.31;5039381;28;20021;-87
2022/06/20 02:34:26;;;;;;;5.25;1.60;;;;;;;31.06;41.25;98745.72;5057877;28;20025;-86
2022/06/20 02:36:53;;;;;;;2.80;1.38;;;;;;;31.06;40.96;98751.09;5042378;28;20489;-88
2022/06/20 02:39:21;;;;;;;3.40;1.50;;;;;;;31.05;41.12;98747.56;5056286;28;20359;-88
2022/06/20 02:41:53;;;;;;;3.42;1.45;;;;;;;31.04;41.18;98739.69;5038703;28;20063;-89
2022/06/20 02:44:21;;;;;;;2.95;1.60;;;;;;;31.04;41.26;98745.88;5055122;28;20349;-88
2022/06/20 02:46:49;;;;;;;3.03;1.20;;;;;;;31.03;41.13;98746.91;5038627;28;20024;-87
2022/06/20 02:49:19;;;;;;;4.45;1.70;;;;;;;31.00;40.99;98747.28;5038548;28;20029;-87
2022/06/20 02:51:51;;;;;;;2.95;1.20;;;;;;;31.01;41.10;98746.25;5038212;28;20028;-86
2022/06/20 02:54:21;;;;;;;3.50;1.50;;;;;;;30.99;41.27;98744.75;5037792;28;20161;-88
2022/06/20 02:56:54;;;;;;;2.60;1.33;;;;;;;30.97;41.41;98742.22;5056237;28;20133;-87
2022/06/20 02:59:27;;;;;;;2.83;1.27;;;;;;;30.98;41.37;98746.59;5038223;28;20039;-87
2022/06/20 03:02:01;;;;;;;4.03;1.52;;;;;;;30.98;41.10;98745.78;5037985;28;20029;-88
2022/06/20 03:04:30;;;;;;;4.20;1.90;;;;;;;30.96;41.18;98748.63;5039033;28;20020;-89
2022/06/20 03:07:19;;;;;;;4.45;2.15;;;;;;;30.95;41.33;98746.97;5038716;28;20377;-87
2022/06/20 03:09:47;;;;;;;2.08;1.25;;;;;;;30.96;41.26;98748.63;5038061;28;20025;-88
2022/06/20 03:12:14;;;;;;;2.10;1.30;;;;;;;30.94;41.24;98746.13;5038114;28;20107;-87
2022/06/20 03:14:46;;;;;;;3.95;1.73;;;;;;;30.93;41.02;98748.97;5038029;28;20086;-88
2022/06/20 03:17:14;;;;;;;2.85;1.40;;;;;;;30.92;41.49;98758.09;5038186;28;20025;-90
2022/06/20 03:19:45;;;;;;;3.40;1.52;;;;;;;30.90;41.56;98762.81;5038190;28;20027;-86
2022/06/20 03:22:16;;;;;;;4.22;1.52;;;;;;;30.91;41.26;98767.19;5056295;28;20021;-87
2022/06/20 03:24:42;;;;;;;3.03;1.52;;;;;;;30.88;41.25;98767.56;5037752;28;20052;-87
2022/06/20 03:27:12;;;;;;;2.85;1.63;;;;;;;30.87;41.34;98776.63;5040836;28;20025;-87
2022/06/20 03:29:40;;;;;;;2.83;1.40;;;;;;;30.90;41.29;98778.97;5038068;28;20021;-88
2022/06/20 03:32:06;;;;;;;2.92;1.70;;;;;;;30.88;41.13;98773.75;5038012;28;20024;-89
2022/06/20 03:34:32;;;;;;;3.05;1.70;;;;;;;30.86;41.35;98788.41;5039406;28;20115;-85
2022/06/20 03:36:58;;;;;;;4.03;1.67;;;;;;;30.85;41.28;98784.03;5038220;28;20052;-88
2022/06/20 03:39:24;;;;;;;2.90;1.60;;;;;;;30.84;41.38;98785.88;5037735;28;20028;-86
2022/06/20 03:41:51;;;;;;;2.97;1.63;;;;;;;30.83;41.45;98784.22;5037671;28;20025;-88
2022/06/20 03:44:24;;;;;;;3.17;1.50;;;;;;;30.84;41.30;98795.84;5037648;28;20024;-86
2022/06/20 03:47:11;;;;;;;3.30;1.42;;;;;;;30.81;41.30;98795.16;5037286;28;20021;-85
2022/06/20 03:49:49;;;;;;;3.17;1.50;;;;;;;30.82;41.23;98785.22;5037310;28;20024;-87
2022/06/20 03:52:23;;;;;;;3.42;1.80;;;;;;;30.81;41.41;98784.38;5041689;28;20021;-86
2022/06/20 03:54:57;;;;;;;3.25;1.70;;;;;;;30.83;41.31;98794.16;5037175;28;20075;-87
2022/06/20 03:57:32;;;;;;;3.00;1.60;;;;;;;30.79;41.36;98788.28;5037614;28;20025;-86
2022/06/20 04:00:17;;;;;;;4.60;1.60;;;;;;;30.79;41.58;98796.38;5037507;28;20362;-87
2022/06/20 04:02:53;;;;;;;3.63;1.95;;;;;;;30.78;41.26;98794.66;5037861;28;20039;-88
2022/06/20 04:05:22;;;;;;;6.30;2.00;;;;;;;30.75;41.34;98786.97;5039500;28;20041;-88
2022/06/20 04:08:04;;;;;;;3.17;1.80;;;;;;;30.74;41.51;98799.56;5041223;28;20031;-88
2022/06/20 04:13:23;;;;;;;3.20;1.70;;;;;;;30.72;41.57;98796.22;5058290;28;20039;-87
2022/06/20 04:16:10;;;;;;;3.15;1.40;;;;;;;30.72;41.34;98796.22;5037622;28;20029;-87
2022/06/20 04:18:43;;;;;;;;;;;;;;;30.73;41.19;98808.66;5039671;28;20052;-86
2022/06/20 04:21:27;;;;;;;4.78;1.85;;;;;;;30.71;41.23;98805.31;5037030;28;20345;-87
2022/06/20 04:24:12;;;;;;;3.38;1.60;;;;;;;30.71;41.44;98799.94;5037075;28;20045;-87
2022/06/20 04:26:49;;;;;;;3.20;1.67;;;;;;;30.68;41.31;98803.81;5037009;28;20444;-87
2022/06/20 04:29:28;;;;;;;4.38;1.73;;;;;;;30.69;41.15;98804.63;5037142;28;20043;-88
2022/06/20 04:32:03;;;;;;;3.00;1.58;;;;;;;30.66;41.55;98803.09;5039023;28;20087;-87
2022/06/20 04:34:49;;;;;;;3.97;1.50;;;;;;;30.71;41.29;98810.69;5056179;28;20035;-87
2022/06/20 04:37:29;;;;;;;4.13;1.88;;;;;;;30.68;41.16;98811.88;5037063;28;20394;-85
2022/06/20 04:40:25;;;;;;;3.13;1.80;;;;;;;30.69;41.33;98812.72;5036775;28;20087;-86
2022/06/20 04:43:17;;;;;;;3.38;1.83;;;;;;;30.67;41.37;98814.72;5037095;28;20115;-88
2022/06/20 04:46:12;;;;;;;4.10;1.70;;;;;;;30.65;41.38;98817.56;5036842;28;20040;-86
2022/06/20 04:48:38;;;;;;;3.97;1.92;;;;;;;30.65;41.50;98816.75;5054001;28;20051;-87
2022/06/20 04:51:09;;;;;;;3.55;1.60;;;;;;;30.65;41.49;98816.75;5037013;28;20092;-86
2022/06/20 04:53:39;;;;;;;3.92;1.88;;;;;;;30.64;41.41;98817.75;5036703;28;20067;-88
2022/06/20 04:56:07;;;;;;;3.03;1.70;;;;;;;30.62;41.33;98811.69;5036730;28;20055;-87
2022/06/20 04:58:52;;;;;;;3.05;1.70;;;;;;;30.60;41.47;98813.72;5055687;28;20033;-88
2022/06/20 05:01:19;;;;;;;3.03;1.70;;;;;;;30.61;41.33;98815.41;5055501;28;20025;-87
2022/06/20 05:03:49;;;;;;;3.03;1.75;;;;;;;30.61;41.36;98823.47;5037128;28;20032;-86
2022/06/20 05:06:21;;;;;;;4.10;1.80;;;;;;;30.60;41.64;98821.81;5037464;28;20386;-87
2022/06/20 05:08:53;;;;;;;3.78;2.17;;;;;;;30.60;41.51;98819.13;5056533;28;20032;-87
2022/06/20 05:11:57;;;;;;;3.38;1.77;;;;;;;30.58;41.65;98821.13;5037930;28;20025;-88
2022/06/20 05:14:28;;;;;;;2.70;1.75;;;;;;;30.58;41.35;98821.97;5006653;28;20036;-86
2022/06/20 05:16:55;;;;;;;5.22;2.08;;;;;;;30.58;41.44;98816.59;5056853;28;20057;-86
2022/06/20 05:19:44;;;;;;;3.47;2.00;;;;;;;30.58;41.51;98819.28;5040579;28;20024;-87
2022/06/20 05:22:37;;;;;;;4.18;1.90;;;;;;;30.58;41.47;98826.50;5040305;28;20025;-87
2022/06/20 05:25:07;;;;;;;3.95;1.90;;;;;;;30.58;41.49;98826.50;5034348;28;20365;-87
2022/06/20 05:28:00;;;;;;;4.03;2.15;;;;;;;30.56;41.44;98818.63;5040489;28;20493;-86
2022/06/20 05:30:31;;;;;;;4.10;2.00;;;;;;;30.56;41.59;98829.41;5040843;28;20063;-87
2022/06/20 05:32:56;;;;;;;5.68;2.17;;;;;;;30.54;41.35;98826.88;5058588;28;20029;-86
2022/06/20 05:35:26;;;;;;;3.92;1.90;;;;;;;30.55;41.59;98825.84;5041710;28;20025;-88
2022/06/20 05:38:03;;;;;;;4.10;2.10;;;;;;;30.52;41.28;98823.53;5041290;28;20016;-85
2022/06/20 05:40:35;;;;;;;4.18;2.20;;;;;;;30.51;41.60;98832.59;5057603;28;20439;-85
2022/06/20 05:43:01;;;;;;;3.28;1.80;;;;;;;30.51;41.58;98821.81;5039919;28;20116;-86
2022/06/20 05:45:29;;;;;;;3.90;1.92;;;;;;;30.52;41.53;98833.44;5057953;28;20068;-86
2022/06/20 05:47:59;;;;;;;3.90;2.00;;;;;;;30.51;41.56;98832.59;5039848;28;20116;-88
2022/06/20 05:50:45;;;;;;;4.35;1.92;;;;;;;30.52;41.64;98836.13;5040003;28;20024;-86
2022/06/20 05:53:23;;;;;;;;;;;;;;;30.51;41.65;98843.34;5040128;28;20421;-85
2022/06/20 05:55:51;;;;;;;4.68;2.05;;;;;;;30.48;41.32;98841.00;5039497;28;19952;-86
2022/06/20 05:58:34;;;;;;;5.18;2.65;;;;;;;30.49;41.39;98849.91;5040138;28;20053;-87
2022/06/20 06:01:03;;;;;;;3.85;2.10;;;;;;;30.47;41.51;98852.81;5041715;28;20036;-85
2022/06/20 06:03:38;;;;;;;4.65;2.28;;;;;;;30.50;41.39;98854.31;5039462;28;20031;-88
2022/06/20 06:06:23;;;;;;;4.18;2.17;;;;;;;30.50;41.62;98841.66;5039389;28;20025;-86
2022/06/20 06:08:55;;;;;;;3.90;2.15;;;;;;;30.50;41.62;98852.44;5039414;28;20049;-87
2022/06/20 06:11:32;;;;;;;5.43;2.10;;;;;;;30.47;41.37;98858.19;5057552;28;20324;-88
2022/06/20 06:14:19;;;;;;;3.97;1.77;;;;;;;30.49;41.49;98874.13;5043072;28;20035;-87
2022/06/20 06:17:02;;;;;;;3.63;2.15;;;;;;;30.46;41.50;98867.25;5045194;28;20028;-88
2022/06/20 06:19:48;;;;;;;4.70;2.53;;;;;;;30.46;41.61;98861.84;5046959;28;20036;-87
2022/06/20 06:22:25;;;;;;;5.45;2.63;;;;;;;30.47;41.63;98860.88;5039307;28;20462;-86
2022/06/20 06:25:06;;;;;;;5.40;2.42;;;;;;;30.47;41.51;98865.41;5038914;28;20033;-88
2022/06/20 06:27:35;;;;;;;6.20;2.30;;;;;;;30.47;41.20;98873.47;5057031;28;20021;-87
2022/06/20 06:30:06;;;;;;;3.55;2.00;;;;;;;30.44;41.67;98869.28;5039291;28;20025;-87
2022/06/20 06:32:34;;;;;;;3.50;2.10;;;;;;;30.44;41.69;98880.03;5039101;28;20036;-87
2022/06/20 06:35:13;;;;;;;5.85;2.50;;;;;;;30.45;41.38;98870.13;5039002;28;20455;-87
2022/06/20 06:37:56;;;;;;;4.68;2.17;;;;;;;30.44;41.59;98873.84;5056973;28;20032;-86
2022/06/20 06:40:33;;;;;;;4.65;2.22;;;;;;;30.42;41.75;98866.75;5039356;28;20112;-86
2022/06/20 06:43:01;;;;;;;3.65;1.98;;;;;;;30.41;41.51;98869.63;5039227;28;20032;-86
2022/06/20 06:45:30;;;;;;;4.20;2.28;;;;;;;30.39;41.65;98866.25;5057608;28;20031;-85
2022/06/20 06:48:02;;;;;;;3.58;2.13;;;;;;;30.42;41.30;98874.00;5039442;28;20481;-88
2022/06/20 06:50:32;;;;;;;4.57;2.70;;;;;;;30.41;41.36;98869.63;5038605;28;20111;-88
2022/06/20 06:53:26;;;;;;;3.20;1.92;;;;;;;30.39;41.61;98871.63;5038405;28;20059;-84
2022/06/20 06:55:59;;;;;;;5.13;2.50;;;;;;;30.40;41.35;98873.31;5039047;28;20053;-88
2022/06/20 06:58:57;;;;;;;3.90;2.08;;;;;;;30.41;41.33;98875.00;5038868;28;20028;-87
2022/06/20 07:01:40;;;;;;;4.63;2.45;;;;;;;30.41;41.47;98875.00;5033236;28;20426;-87
2022/06/20 07:04:28;;;;;;;4.90;2.55;;;;;;;30.40;41.55;98884.06;5056454;28;20052;-87
2022/06/20 07:07:06;;;;;;;4.50;2.13;;;;;;;30.39;41.66;98885.09;5038384;28;20139;-88
2022/06/20 07:09:34;;;;;;;4.20;2.28;;;;;;;30.37;41.54;98881.75;5038436;28;20064;-86
2022/06/20 07:12:11;;;;;;;4.32;2.42;;;;;;;30.38;41.46;98886.97;5038443;28;20120;-85
2022/06/20 07:14:42;;;;;;;5.72;2.80;;;;;;;30.38;41.62;98891.50;5056053;28;20040;-87
2022/06/20 07:17:11;;;;;;;4.88;2.30;;;;;;;30.36;41.55;98893.53;5038226;28;20037;-86
2022/06/20 07:19:41;;;;;;;5.40;2.47;;;;;;;30.36;41.55;98898.91;5055851;28;20417;-86
2022/06/20 07:22:11;;;;;;;5.47;2.70;;;;;;;30.36;41.35;98897.03;5055618;28;20059;-86
2022/06/20 07:24:37;;;;;;;6.05;2.67;;;;;;;30.35;41.67;98902.59;5037994;28;20373;-86
2022/06/20 07:27:19;;;;;;;5.55;2.90;;;;;;;30.36;41.80;98898.91;5038916;28;20112;-87
2022/06/20 07:29:50;;;;;;;5.25;2.88;;;;;;;30.36;41.59;98904.28;5037960;28;20036;-87
2022/06/20 07:32:36;;;;;;;3.92;2.50;;;;;;;30.34;41.55;98911.66;5037849;28;20036;-86
2022/06/20 07:35:08;;;;;;;5.32;2.65;;;;;;;30.33;41.81;98905.47;5055853;28;20091;-88
2022/06/20 07:38:13;;;;;;;4.80;2.80;;;;;;;30.34;41.79;98912.53;5040876;28;20096;-85
2022/06/20 07:40:50;;;;;;;5.00;2.40;;;;;;;30.33;41.59;98910.00;5038116;28;20036;-87
2022/06/20 07:43:55;;;;;;;6.75;2.92;;;;;;;30.31;41.63;98912.84;5038285;28;20032;-87
2022/06/20 07:46:27;;;;;;;5.07;3.08;;;;;;;30.32;41.74;98919.06;5037826;28;20036;-87
2022/06/20 07:48:57;;;;;;;4.15;2.75;;;;;;;30.30;41.80;98913.84;5037833;28;20036;-87
2022/06/20 07:51:34;;;;;;;4.60;2.70;;;;;;;30.28;41.72;98916.72;5037237;28;20373;-87
2022/06/20 07:54:08;;;;;;;6.53;3.15;;;;;;;30.28;41.55;98918.56;5037406;28;20151;-87
2022/06/20 07:56:40;;;;;;;5.10;3.05;;;;;;;30.30;41.82;98915.72;5037805;28;20115;-87
2022/06/20 07:59:32;;;;;;;5.68;3.10;;;;;;;30.30;41.53;98923.81;5037505;28;20039;-87
2022/06/20 08:02:13;;;;;;;5.38;2.63;;;;;;;30.30;41.76;98918.41;5037434;28;20033;-87
2022/06/20 08:04:40;;;;;;;5.50;2.50;;;;;;;30.29;41.72;98914.88;5037173;28;20025;-86
2022/06/20 08:07:24;;;;;;;5.55;2.95;;;;;;;30.27;41.47;98917.72;5037331;28;20458;-86
2022/06/20 08:10:16;;;;;;;5.90;3.42;;;;;;;30.28;42.00;98923.97;5037396;28;20029;-87
2022/06/20 08:13:06;;;;;;;4.63;2.80;;;;;;;30.26;41.83;98918.75;5053823;28;20040;-87
2022/06/20 08:16:01;;;;;;;4.50;2.80;;;;;;;30.26;41.78;98909.84;5055224;28;20421;-86
2022/06/20 08:18:29;;;;;;;5.85;2.95;;;;;;;30.27;41.74;98915.03;5027865;28;20033;-88
2022/06/20 08:21:19;;;;;;;4.50;3.22;;;;;;;30.26;41.90;98913.34;5041182;28;20044;-86
2022/06/20 08:23:51;;;;;;;7.03;3.45;;;;;;;30.26;41.76;98917.91;5043989;28;20033;-89
2022/06/20 08:26:32;;;;;;;5.85;3.47;;;;;;;30.25;41.95;98908.13;5047822;28;20443;-86
2022/06/20 08:29:03;;;;;;;5.63;3.13;;;;;;;30.25;41.83;98910.81;5056701;28;20104;-87
2022/06/20 08:31:33;;;;;;;5.75;3.38;;;;;;;30.27;41.94;98911.53;5037126;28;20025;-89
2022/06/20 08:34:10;;;;;;;6.13;3.33;;;;;;;30.27;41.53;98912.34;5037462;28;20059;-87
2022/06/20 08:37:07;;;;;;;4.80;3.45;;;;;;;30.26;41.85;98916.03;5037413;28;20112;-86
2022/06/20 08:39:48;;;;;;;5.93;3.33;;;;;;;30.25;41.69;98919.75;5040245;28;20455;-85
2022/06/20 08:42:35;;;;;;;5.85;3.47;;;;;;;30.27;41.96;98912.34;5039196;28;20090;-88
2022/06/20 08:45:25;;;;;;;6.05;3.45;;;;;;;30.25;41.84;98922.44;5054120;28;20458;-87
2022/06/20 08:48:25;;;;;;;5.40;2.78;;;;;;;30.25;41.82;98919.75;5036972;28;20032;-86
2022/06/20 08:50:53;;;;;;;5.07;2.80;;;;;;;30.24;41.55;98928.84;5039587;28;20459;-87
2022/06/20 08:53:34;;;;;;;6.57;3.22;;;;;;;30.25;41.78;98922.44;5041543;28;20028;-87
2022/06/20 08:56:21;;;;;;;6.07;3.60;;;;;;;30.26;41.60;98921.44;5041147;28;20473;-87
2022/06/20 08:58:50;;;;;;;6.18;3.05;;;;;;;30.27;42.01;98919.59;5040472;28;20025;-89
2022/06/20 09:01:24;;;;;;;6.03;3.40;;;;;;;30.25;41.53;98914.38;5040878;28;20024;-86
2022/06/20 09:04:17;;;;;;;5.97;3.28;;;;;;;30.25;41.64;98922.44;5040672;28;20017;-87
2022/06/20 09:07:04;;;;;;;6.22;3.58;;;;;;;30.24;42.00;98931.53;5040556;28;20059;-87
2022/06/20 09:09:30;;;;;;;6.80;3.75;;;;;;;30.24;42.02;98934.22;5040701;28;20083;-87
2022/06/20 09:12:10;;;;;;;5.55;3.22;;;;;;;30.23;42.02;98937.94;5041189;28;20021;-87
2022/06/20 09:15:04;;;;;;;6.28;3.85;;;;;;;30.25;41.65;98935.03;5042614;28;20040;-86
2022/06/20 09:18:09;;;;;;;4.60;3.10;;;;;;;30.24;41.65;98936.91;5040345;28;20029;-86
2022/06/20 09:21:07;;;;;;;5.82;3.45;;;;;;;30.23;41.90;98947.84;5040701;28;20454;-87
2022/06/20 09:23:37;;;;;;;5.45;3.50;;;;;;;30.23;41.85;98943.31;5040357;28;20033;-87
2022/06/20 09:26:30;;;;;;;5.72;3.20;;;;;;;30.23;42.01;98943.31;5040131;28;20036;-88
2022/06/20 09:29:15;;;;;;;4.65;3.40;;;;;;;30.23;41.90;98937.94;5040154;28;20029;-89
2022/06/20 09:32:03;;;;;;;5.85;3.00;;;;;;;30.23;41.66;98937.94;5040328;28;20018;-87
2022/06/20 09:34:38;;;;;;;5.88;3.47;;;;;;;30.24;41.90;98933.38;5010291;28;20041;-87
2022/06/20 09:37:19;;;;;;;5.95;3.67;;;;;;;30.24;41.60;98955.75;5040270;28;20029;-86
2022/06/20 09:40:02;;;;;;;5.90;3.45;;;;;;;30.24;41.89;98944.97;5040030;28;20036;-86
2022/06/20 09:42:59;;;;;;;5.55;3.63;;;;;;;30.23;41.49;98943.31;5039978;28;20033;-86
2022/06/20 09:45:44;;;;;;;6.35;3.70;;;;;;;30.24;41.76;98950.38;5035982;28;20375;-87
2022/06/20 09:48:37;;;;;;;5.72;3.53;;;;;;;30.25;41.54;98952.03;5041122;28;20124;-87
2022/06/20 09:51:18;;;;;;;5.70;3.65;;;;;;;30.25;41.58;98952.03;5023878;28;20020;-86
2022/06/20 09:54:12;;;;;;;5.10;3.17;;;;;;;30.24;41.91;98954.88;5040262;28;20024;-86
2022/06/20 09:56:50;;;;;;;5.70;3.78;;;;;;;30.24;41.65;98954.88;5058205;28;20060;-87
2022/06/20 09:59:31;;;;;;;6.00;3.80;;;;;;;30.24;41.97;98965.66;5039855;28;20094;-87
2022/06/20 10:02:09;;;;;;;5.97;3.55;;;;;;;30.25;41.73;98961.94;5041691;28;20108;-86
2022/06/20 10:04:47;;;;;;;6.60;3.60;;;;;;;30.24;41.73;98958.44;5039617;28;20366;-87
2022/06/20 10:07:12;;;;;;;6.43;3.50;;;;;;;30.25;41.87;98951.19;5039734;28;20109;-85
2022/06/20 10:09:47;;;;;;;5.80;3.50;;;;;;;30.27;41.89;98955.41;5039756;28;20466;-88
2022/06/20 10:12:13;;;;;;;5.88;3.35;;;;;;;30.27;41.90;98954.56;5057588;28;20451;-87
2022/06/20 10:14:38;;;;;;;5.03;3.40;;;;;;;30.27;41.66;98957.25;5039530;28;20106;-87
2022/06/20 10:17:36;;;;;;;4.78;3.28;;;;;;;30.27;41.70;98955.41;5039725;28;20362;-86
2022/06/20 10:20:42;;;;;;;5.75;3.33;;;;;;;30.26;41.63;98945.66;5031765;28;20044;-86
2022/06/20 10:23:43;;;;;;;6.07;3.70;;;;;;;30.30;41.65;98945.31;5040317;28;20021;-86
2022/06/20 10:26:23;;;;;;;5.35;3.63;;;;;;;30.28;41.69;98954.38;5056058;28;20283;-87
2022/06/20 10:29:19;;;;;;;6.35;3.80;;;;;;;30.28;41.70;98962.44;5057328;28;20028;-86
2022/06/20 10:32:05;;;;;;;5.25;3.42;;;;;;;30.27;41.75;98949.19;5043230;28;20032;-88
2022/06/20 10:34:44;;;;;;;6.90;3.67;;;;;;;30.30;41.52;98943.47;5045657;28;20029;-87
2022/06/20 10:37:30;;;;;;;5.10;3.30;;;;;;;30.31;41.74;98944.31;5043579;28;20025;-86
2022/06/20 10:40:14;;;;;;;6.13;3.50;;;;;;;30.32;41.50;98932.53;5039425;28;20102;-88
2022/06/20 10:42:58;;;;;;;5.05;3.10;;;;;;;30.33;41.31;98928.81;5055778;28;20036;-87
2022/06/20 10:45:44;;;;;;;5.30;3.30;;;;;;;30.32;41.69;98924.47;5039485;28;20463;-86
2022/06/20 10:48:28;;;;;;;5.38;3.25;;;;;;;30.34;41.42;98927.81;5041331;28;20028;-88
2022/06/20 10:51:25;;;;;;;6.13;3.40;;;;;;;30.38;41.60;98921.09;5040765;28;20020;-88
2022/06/20 10:54:18;;;;;;;5.68;3.08;;;;;;;30.39;41.35;98929.00;5039976;28;20025;-87
2022/06/20 10:56:49;;;;;;;4.97;3.20;;;;;;;30.41;41.58;98935.03;5038977;28;20041;-86
2022/06/20 10:59:22;;;;;;;5.95;3.35;;;;;;;30.44;41.69;98928.50;5039026;28;20279;-85
2022/06/20 11:02:23;;;;;;;5.60;3.03;;;;;;;30.46;41.55;98931.03;5038436;28;20029;-87
2022/06/20 11:04:55;;;;;;;5.07;3.17;;;;;;;30.47;41.57;98928.16;5038497;28;20032;-87
2022/06/20 11:07:37;;;;;;;5.85;3.50;;;;;;;30.49;41.60;98918.06;5038758;28;20135;-88
2022/06/20 11:10:09;;;;;;;6.72;3.17;;;;;;;30.50;41.64;98917.03;5038390;28;20351;-87
2022/06/20 11:13:06;;;;;;;5.28;3.70;;;;;;;30.51;41.53;98910.66;5038830;28;20039;-88
2022/06/20 11:15:56;;;;;;;5.53;3.40;;;;;;;30.56;41.46;98904.78;5055273;28;20028;-88
2022/06/20 11:18:55;;;;;;;6.03;3.70;;;;;;;30.58;41.51;98897.34;5056736;28;20521;-88
2022/06/20 11:21:37;;;;;;;5.85;3.50;;;;;;;30.61;41.57;98901.56;5038967;28;20033;-88
2022/06/20 11:24:18;;;;;;;4.82;3.17;;;;;;;30.61;41.46;98899.72;5038766;28;20111;-88
2022/06/20 11:27:10;;;;;;;6.20;3.38;;;;;;;30.63;41.31;98900.38;5040187;28;20033;-88
2022/06/20 11:30:06;;;;;;;4.32;3.15;;;;;;;30.66;41.54;98893.81;5056551;28;20029;-87
2022/06/20 11:32:51;;;;;;;4.50;3.00;;;;;;;30.69;41.25;98893.47;5039585;28;20420;-87
2022/06/20 11:35:27;;;;;;;5.30;3.40;;;;;;;30.68;41.24;98886.38;5056550;28;20056;-87
2022/06/20 11:38:14;;;;;;;5.30;3.33;;;;;;;30.69;41.35;98880.03;5041750;28;20040;-88
2022/06/20 11:41:05;;;;;;;5.97;3.17;;;;;;;30.71;41.65;98883.41;5057004;28;20033;-87
2022/06/20 11:43:52;;;;;;;7.18;2.83;;;;;;;30.72;41.51;98874.31;5044958;28;20102;-88
2022/06/20 11:46:52;;;;;;;5.38;3.05;;;;;;;30.74;41.83;98882.22;5040460;28;20024;-88
2022/06/20 11:49:29;;;;;;;4.85;3.35;;;;;;;30.76;41.62;98872.97;5039964;28;20043;-88
2022/06/20 11:52:23;;;;;;;6.70;3.97;;;;;;;30.77;41.84;98863.88;5051553;28;20033;-89
2022/06/20 11:55:16;;;;;;;5.50;3.25;;;;;;;30.79;41.45;98867.22;5055449;28;20056;-89
2022/06/20 11:57:59;;;;;;;5.55;3.22;;;;;;;30.80;41.67;98868.88;5072174;28;20029;-89
2022/06/20 12:00:38;;;;;;;6.32;3.40;;;;;;;30.83;41.35;98872.25;5053685;28;20025;-88
2022/06/20 12:03:15;;;;;;;4.38;3.08;;;;;;;30.85;41.65;98870.22;5050666;28;20040;-86
2022/06/20 12:06:03;;;;;;;7.25;3.65;;;;;;;30.84;41.58;98866.69;5038149;28;20108;-87
2022/06/20 12:08:44;;;;;;;6.03;3.50;;;;;;;30.88;41.25;98869.91;5059863;28;20028;-86
2022/06/20 12:11:28;;;;;;;6.18;3.47;;;;;;;30.88;41.27;98857.25;5044563;28;20100;-86
2022/06/20 12:14:01;;;;;;;6.00;3.80;;;;;;;30.89;41.44;98858.09;5041596;28;20024;-87
2022/06/20 12:16:29;;;;;;;6.00;3.72;;;;;;;30.90;41.62;98852.53;5056949;28;20409;-87
2022/06/20 12:24:59;;;;;;;7.38;4.45;;;;;;;30.94;41.57;98848.47;5056893;28;20047;-88
2022/06/20 12:27:26;;;;;;;7.80;4.65;;;;;;;30.95;41.70;98831.28;5043953;28;20024;-86
2022/06/20 12:29:52;;;;;;;7.20;4.03;;;;;;;30.97;41.40;98833.00;5046800;28;20469;-86
2022/06/20 12:32:21;;;;;;;5.65;3.50;;;;;;;30.97;41.56;98839.22;5043945;28;20111;-87
2022/06/20 12:35:17;;;;;;;6.65;3.85;;;;;;;31.00;41.60;98836.19;5043962;28;20037;-87